createdAt,value
2022-08-17T00:00:06.403Z,50.63393
2022-08-17T00:05:11.209Z,50.39465
2022-08-17T00:10:12.143Z,50.21289
2022-08-17T00:15:13.141Z,50.05477
2022-08-17T00:20:14.058Z,50.15631
2022-08-17T00:25:16.100Z,49.8823
2022-08-17T00:30:17.047Z,49.47248
2022-08-17T00:35:17.986Z,49.2311
2022-08-17T00:40:18.902Z,49.18256
2022-08-17T00:45:19.927Z,49.27998
2022-08-17T00:50:20.845Z,49.7644
2022-08-17T00:55:21.786Z,49.50938
2022-08-17T01:00:22.722Z,49.56617
2022-08-17T01:05:23.637Z,49.5951
2022-08-17T01:11:00.084Z,49.3622
2022-08-17T01:16:02.616Z,49.00948
2022-08-17T01:21:03.697Z,48.72184
2022-08-17T01:26:04.695Z,48.60062
2022-08-17T01:31:05.680Z,48.66362
2022-08-17T01:36:06.720Z,48.04605
2022-08-17T01:41:07.691Z,47.56139
2022-08-17T01:46:08.870Z,47.48768
2022-08-17T01:51:09.783Z,47.15874
2022-08-17T01:56:10.794Z,47.00504
2022-08-17T02:01:11.770Z,46.71572
2022-08-17T02:06:27.783Z,47.24459
2022-08-17T02:11:29.307Z,47.44307
2022-08-17T02:16:37.395Z,47.33107
2022-08-17T02:21:38.924Z,47.89624
2022-08-17T02:26:39.818Z,47.25739
2022-08-17T02:31:40.727Z,47.22953
2022-08-17T02:36:41.785Z,47.87466
2022-08-17T02:41:42.679Z,48.22625
2022-08-17T02:46:43.705Z,48.10783
2022-08-17T02:51:44.626Z,47.87385
2022-08-17T02:56:45.528Z,47.57692
2022-08-17T03:01:46.583Z,47.65312
2022-08-17T03:06:47.492Z,47.83661
2022-08-17T03:11:49.162Z,48.2535
2022-08-17T03:16:54.220Z,48.35996
2022-08-17T03:21:55.591Z,48.18694
2022-08-17T03:26:56.521Z,48.76989
2022-08-17T03:31:57.463Z,48.95314
2022-08-17T03:36:58.400Z,48.80529
2022-08-17T03:41:59.545Z,49.19688
2022-08-17T03:47:00.579Z,48.4837
2022-08-17T03:52:01.590Z,48.56897
2022-08-17T03:57:02.493Z,48.22233
2022-08-17T04:02:09.320Z,48.14495
2022-08-17T04:07:10.463Z,48.06756
2022-08-17T04:12:11.604Z,48.04941
2022-08-17T04:17:12.718Z,47.41336
2022-08-17T04:22:33.265Z,47.34575
2022-08-17T04:27:34.951Z,47.32002
2022-08-17T04:33:10.824Z,47.34636
2022-08-17T04:38:11.949Z,47.12826
2022-08-17T04:43:12.871Z,46.08589
2022-08-17T04:48:13.815Z,45.77255
2022-08-17T04:53:14.745Z,45.841
2022-08-17T04:58:15.681Z,46.17478
2022-08-17T05:03:16.593Z,45.97437
2022-08-17T05:08:17.530Z,45.90973
2022-08-17T05:13:18.542Z,45.45605
2022-08-17T05:18:19.479Z,44.93446
2022-08-17T05:23:20.406Z,44.40795
2022-08-17T05:28:24.076Z,44.37162
2022-08-17T05:33:27.619Z,43.47726
2022-08-17T05:38:29.548Z,43.67502
2022-08-17T05:43:30.569Z,43.09882
2022-08-17T05:48:35.613Z,43.041
2022-08-17T05:53:41.211Z,42.6035
2022-08-17T05:58:43.952Z,43.37328
2022-08-17T06:03:44.889Z,43.04098
2022-08-17T06:08:45.819Z,42.93012
2022-08-17T06:13:49.202Z,43.06162
2022-08-17T06:23:50.890Z,42.54091
2022-08-17T06:28:51.890Z,42.29141
2022-08-17T06:33:52.833Z,42.5409
2022-08-17T06:38:53.918Z,42.81218
2022-08-17T06:43:54.892Z,42.47392
2022-08-17T06:48:55.833Z,42.3729
2022-08-17T06:53:56.768Z,42.19606
2022-08-17T06:58:58.765Z,42.45687
2022-08-17T07:03:59.671Z,42.51851
2022-08-17T07:09:07.790Z,42.19008
2022-08-17T07:14:08.708Z,42.36481
2022-08-17T07:19:19.867Z,42.48497
2022-08-17T07:24:29.198Z,42.52393
2022-08-17T07:29:31.333Z,42.60451
2022-08-17T07:34:32.239Z,42.44917
2022-08-17T07:39:33.257Z,42.48685
2022-08-17T07:44:34.203Z,41.83471
2022-08-17T07:49:36.571Z,42.18913
2022-08-17T07:54:37.494Z,42.04258
2022-08-17T07:59:38.640Z,42.25187
2022-08-17T08:04:59.661Z,42.5365
2022-08-17T08:10:01.130Z,42.63578
2022-08-17T08:15:02.211Z,42.21324
2022-08-17T08:20:34.865Z,42.0634
2022-08-17T08:25:53.990Z,41.74524
2022-08-17T08:30:55.260Z,41.25603
2022-08-17T08:35:56.211Z,41.66322
2022-08-17T08:40:57.119Z,42.00696
2022-08-17T08:45:58.059Z,42.72499
2022-08-17T08:50:59.011Z,42.71824
2022-08-17T08:56:00.735Z,42.62797
2022-08-17T09:01:01.776Z,43.11044
2022-08-17T09:06:02.796Z,42.95619
2022-08-17T09:11:03.716Z,42.48402
2022-08-17T09:16:04.678Z,42.75081
2022-08-17T09:21:05.597Z,43.5372
2022-08-17T09:26:06.856Z,43.20416
2022-08-17T09:31:07.807Z,43.86278
2022-08-17T09:36:08.778Z,43.35094
2022-08-17T09:41:09.729Z,43.45014
2022-08-17T09:46:10.667Z,43.95066
2022-08-17T09:51:11.629Z,43.1264
2022-08-17T09:56:12.610Z,43.77106
2022-08-17T10:01:13.537Z,44.18048
2022-08-17T10:06:14.505Z,44.62676
2022-08-17T10:11:15.449Z,44.85912
2022-08-17T10:16:21.771Z,45.42426
2022-08-17T10:21:22.688Z,45.22249
2022-08-17T10:26:23.659Z,45.38411
2022-08-17T10:31:35.397Z,44.94199
2022-08-17T10:36:37.009Z,45.1577
2022-08-17T10:41:40.421Z,45.04663
2022-08-17T10:46:41.608Z,45.47089
2022-08-17T10:51:42.548Z,45.08484
2022-08-17T10:56:43.514Z,45.07126
2022-08-17T11:01:44.418Z,45.06378
2022-08-17T11:06:45.349Z,45.83443
2022-08-17T11:11:46.252Z,46.3079
2022-08-17T11:16:47.162Z,46.52941
2022-08-17T11:21:48.084Z,46.66334
2022-08-17T11:26:49.500Z,46.94991
2022-08-17T11:31:50.440Z,47.73161
2022-08-17T11:36:55.101Z,47.5902
2022-08-17T11:41:56.068Z,47.72109
2022-08-17T11:46:57.068Z,48.03233
2022-08-17T11:51:57.983Z,48.53763
2022-08-17T11:56:59.522Z,49.07722
2022-08-17T12:02:00.441Z,48.77609
2022-08-17T12:07:01.424Z,49.38231
2022-08-17T12:12:12.595Z,49.47092
2022-08-17T12:22:15.465Z,49.07147
2022-08-17T12:27:16.515Z,49.18371
2022-08-17T12:32:48.669Z,48.82494
2022-08-17T12:37:50.275Z,48.71873
2022-08-17T12:42:51.365Z,49.18727
2022-08-17T12:47:52.569Z,49.42852
2022-08-17T12:52:53.603Z,49.79408
2022-08-17T12:58:02.020Z,50.26692
2022-08-17T13:03:03.286Z,51.60629
2022-08-17T13:13:04.662Z,52.39246
2022-08-17T13:18:05.596Z,52.3587
2022-08-17T13:23:12.563Z,52.06713
2022-08-17T13:28:13.859Z,52.3723
2022-08-17T13:33:14.794Z,52.00915
2022-08-17T13:38:18.551Z,51.78177
2022-08-17T13:43:19.449Z,52.37723
2022-08-17T13:48:20.382Z,51.99933
2022-08-17T13:53:21.325Z,51.85998
2022-08-17T13:58:22.249Z,52.79502
2022-08-17T14:03:23.133Z,52.6663
2022-08-17T14:08:24.066Z,53.22965
2022-08-17T14:13:24.977Z,53.39067
2022-08-17T14:18:37.532Z,53.521
2022-08-17T14:23:57.486Z,53.4712
2022-08-17T14:34:04.142Z,53.52325
2022-08-17T14:39:05.152Z,54.18204
2022-08-17T14:44:06.120Z,54.18966
2022-08-17T14:49:07.529Z,54.2782
2022-08-17T14:54:09.342Z,54.80217
2022-08-17T14:59:10.278Z,54.2883
2022-08-17T15:04:11.199Z,54.45306
2022-08-17T15:09:12.119Z,54.4447
2022-08-17T15:14:12.981Z,54.12543
2022-08-17T15:19:13.870Z,54.69258
2022-08-17T15:29:15.234Z,55.09326
2022-08-17T15:34:16.242Z,54.91657
2022-08-17T15:39:19.608Z,55.34627
2022-08-17T15:44:21.169Z,55.87844
2022-08-17T15:49:31.372Z,56.38759
2022-08-17T15:54:34.597Z,56.88588
2022-08-17T15:59:36.968Z,56.94594
2022-08-17T16:04:40.223Z,56.88472
2022-08-17T16:09:45.117Z,57.23844
2022-08-17T16:14:46.053Z,57.01986
2022-08-17T16:19:46.984Z,57.13009
2022-08-17T16:24:56.868Z,56.72022
2022-08-17T16:29:58.564Z,56.25978
2022-08-17T16:34:59.518Z,56.99188
2022-08-17T16:40:00.774Z,57.47402
2022-08-17T16:45:01.750Z,57.00774
2022-08-17T16:50:02.678Z,57.26986
2022-08-17T16:55:03.613Z,57.34303
2022-08-17T17:00:04.633Z,57.10124
2022-08-17T17:05:05.707Z,57.1924
2022-08-17T17:10:06.654Z,57.75407
2022-08-17T17:15:07.974Z,57.40776
2022-08-17T17:20:09.022Z,57.56049
2022-08-17T17:25:09.938Z,56.86869
2022-08-17T17:30:15.950Z,56.99278
2022-08-17T17:35:16.916Z,57.06773
2022-08-17T17:40:17.966Z,56.99888
2022-08-17T17:45:18.975Z,57.05767
2022-08-17T17:50:19.887Z,57.22645
2022-08-17T17:55:20.781Z,57.52381
2022-08-17T18:00:21.745Z,57.20833
2022-08-17T18:05:22.694Z,56.63083
2022-08-17T18:10:30.057Z,55.90288
2022-08-17T18:15:31.657Z,55.95538
2022-08-17T18:20:43.464Z,56.00368
2022-08-17T18:27:43.252Z,55.49279
2022-08-17T18:32:44.161Z,55.51505
2022-08-17T18:37:45.242Z,54.88019
2022-08-17T18:42:46.295Z,54.07287
2022-08-17T18:47:47.363Z,54.47674
2022-08-17T18:52:48.372Z,54.36363
2022-08-17T18:57:49.601Z,54.4118
2022-08-17T19:02:50.697Z,54.09892
2022-08-17T19:07:51.992Z,53.92427
2022-08-17T19:12:53.165Z,53.55674
2022-08-17T19:17:54.953Z,53.49285
2022-08-17T19:22:55.986Z,53.89166
2022-08-17T19:27:57.895Z,54.42055
2022-08-17T19:32:59.053Z,54.17572
2022-08-17T19:37:59.994Z,53.82796
2022-08-17T19:43:00.897Z,54.01726
2022-08-17T19:48:03.338Z,53.90395
2022-08-17T19:53:04.422Z,54.34225
2022-08-17T19:58:05.395Z,54.32597
2022-08-17T20:03:06.605Z,54.17884
2022-08-17T20:08:07.838Z,54.79785
2022-08-17T20:13:08.808Z,54.69375
2022-08-17T20:18:09.802Z,54.41966
2022-08-17T20:23:10.834Z,54.4088
2022-08-17T20:28:11.714Z,54.51565
2022-08-17T20:33:13.316Z,54.98426
2022-08-17T20:38:14.655Z,55.1901
2022-08-17T20:43:15.607Z,55.15478
2022-08-17T20:48:36.309Z,55.06709
2022-08-17T20:53:38.752Z,54.76458
2022-08-17T20:58:39.699Z,54.49772
2022-08-17T21:03:50.273Z,54.78736
2022-08-17T21:08:52.607Z,54.70429
2022-08-17T21:13:53.627Z,54.36703
2022-08-17T21:18:54.495Z,53.58485
2022-08-17T21:23:55.396Z,53.05486
2022-08-17T21:29:00.604Z,52.7481
2022-08-17T21:34:02.648Z,52.77954
2022-08-17T21:39:03.636Z,53.15471
2022-08-17T21:44:04.590Z,52.69227
2022-08-17T21:49:10.864Z,52.82426
2022-08-17T21:54:14.991Z,52.46238
2022-08-17T21:59:15.954Z,52.27158
2022-08-17T22:04:16.852Z,51.89792
2022-08-17T22:09:17.793Z,52.21359
2022-08-17T22:14:18.712Z,51.92651
2022-08-17T22:19:21.841Z,51.7308
2022-08-17T22:24:22.761Z,51.72759
2022-08-17T22:29:23.643Z,51.55716
2022-08-17T22:34:24.579Z,51.26617
2022-08-17T22:39:25.702Z,51.35974
2022-08-17T22:44:26.621Z,51.97618
2022-08-17T22:49:27.554Z,50.9991
2022-08-17T22:54:28.451Z,50.87565
2022-08-17T22:59:29.345Z,50.95984
2022-08-17T23:04:30.267Z,51.37223
2022-08-17T23:09:31.186Z,51.55307
2022-08-17T23:14:32.135Z,51.37372
2022-08-17T23:19:33.028Z,51.86173
2022-08-17T23:24:33.905Z,51.34901
2022-08-17T23:29:34.779Z,51.46596
2022-08-17T23:34:35.937Z,52.06861
2022-08-17T23:39:36.910Z,51.88176
2022-08-17T23:44:37.821Z,52.00049
2022-08-17T23:49:38.748Z,52.22106
2022-08-17T23:54:39.695Z,53.09708
2022-08-17T23:59:40.568Z,52.5679
